Time;durP1;ratioP1;P1;durP2;ratioP2;P2;SDS_P1;SDS_P2;PMS_P1;PMS_P2;Temp;Humidity;BMP_temperature;BMP_pressure;BME280_temperature;BME280_humidity;BME280_pressure;Samples;Min_cycle;Max_cycle;Signal;HPM_P1;HPM_P2
2022/11/13 00:01:23;;;;;;;5.20;3.40;;;;;;;8.47;97.57;100694.39;106126;1298;22225;-55
2022/11/13 00:04:09;;;;;;;4.10;3.20;;;;;;;8.51;97.60;100693.73;106086;1312;138289;-56
2022/11/13 00:06:54;;;;;;;5.00;3.60;;;;;;;8.55;97.27;100690.91;103002;1305;25383;-56
2022/11/13 00:09:44;;;;;;;5.60;3.50;;;;;;;8.57;97.29;100689.98;101790;1308;25139;-56
2022/11/13 00:12:29;;;;;;;4.60;2.90;;;;;;;8.60;97.25;100687.48;101789;1296;24440;-55
2022/11/13 00:15:15;;;;;;;8.50;3.60;;;;;;;8.61;97.24;100689.69;102507;1296;27387;-56
2022/11/13 00:18:01;;;;;;;6.00;3.50;;;;;;;8.60;97.19;100685.10;102163;1289;138586;-56
2022/11/13 00:20:47;;;;;;;6.80;3.80;;;;;;;8.61;97.34;100680.23;102310;1297;22496;-56
2022/11/13 00:23:34;;;;;;;5.30;3.50;;;;;;;8.61;97.28;100679.20;102279;1289;139637;-56
2022/11/13 00:26:24;;;;;;;4.40;3.80;;;;;;;8.60;97.36;100684.01;106574;1306;22161;-56
2022/11/13 00:29:09;;;;;;;6.50;3.90;;;;;;;8.60;97.49;100686.98;106468;1306;138974;-56
2022/11/13 00:31:55;;;;;;;9.40;4.20;;;;;;;8.60;97.65;100684.30;106582;1306;22162;-56
2022/11/13 00:34:40;;;;;;;5.60;3.90;;;;;;;8.60;97.71;100683.09;106580;1306;139591;-56
2022/11/13 00:37:32;;;;;;;4.50;3.90;;;;;;;8.59;97.56;100675.56;106690;1289;22172;-56
2022/11/13 00:40:18;;;;;;;7.40;4.10;;;;;;;8.58;97.73;100673.98;106550;1288;140170;-56
2022/11/13 00:43:03;;;;;;;4.70;3.60;;;;;;;8.58;97.66;100674.36;106606;1306;22174;-56
2022/11/13 00:45:48;;;;;;;6.60;3.60;;;;;;;8.55;97.63;100670.35;106609;1306;22241;-56
2022/11/13 00:48:33;;;;;;;8.30;4.20;;;;;;;8.52;97.61;100668.06;106608;1306;23010;-56
2022/11/13 00:51:19;;;;;;;4.30;3.20;;;;;;;8.52;97.87;100667.15;106702;1304;22243;-56
2022/11/13 00:54:04;;;;;;;6.90;3.90;;;;;;;8.52;97.89;100672.30;106515;1306;138776;-56
2022/11/13 00:56:49;;;;;;;12.80;3.90;;;;;;;8.53;97.96;100663.60;106711;1305;22133;-56
2022/11/13 00:59:34;;;;;;;4.70;3.50;;;;;;;8.54;98.03;100660.03;106486;1306;139375;-56
2022/11/13 01:02:20;;;;;;;4.40;2.90;;;;;;;8.53;98.01;100656.31;106590;1306;22166;-56
2022/11/13 01:05:07;;;;;;;6.30;3.10;;;;;;;8.52;98.03;100649.72;106585;1303;138663;-55
2022/11/13 01:07:53;;;;;;;6.60;3.10;;;;;;;8.52;98.26;100646.77;106661;1296;22148;-53
2022/11/13 01:10:43;;;;;;;4.70;3.30;;;;;;;8.53;98.16;100649.47;106591;1293;138354;-53
2022/11/13 01:13:31;;;;;;;4.40;2.90;;;;;;;8.53;98.20;100655.11;106761;1303;22133;-54
2022/11/13 01:16:18;;;;;;;6.60;3.20;;;;;;;8.52;97.94;100656.66;106730;1303;22185;-53
2022/11/13 01:19:03;;;;;;;7.70;4.40;;;;;;;8.50;98.21;100653.80;106632;1303;139087;-53
2022/11/13 01:21:49;;;;;;;3.00;2.10;;;;;;;8.48;98.10;100651.39;106722;1303;22270;-53
2022/11/13 01:24:34;;;;;;;4.30;2.70;;;;;;;8.46;98.05;100654.07;106657;1303;137623;-53
2022/11/13 01:27:19;;;;;;;3.20;2.30;;;;;;;8.48;98.14;100651.14;106770;1303;22190;-53
2022/11/13 01:30:05;;;;;;;3.30;1.90;;;;;;;8.49;98.06;100646.09;106618;1303;138207;-53
2022/11/13 01:32:51;;;;;;;3.30;2.40;;;;;;;8.50;98.25;100646.29;106760;1293;22132;-53
2022/11/13 01:35:36;;;;;;;3.80;2.10;;;;;;;8.51;98.11;100649.86;106596;1303;137858;-56
2022/11/13 01:38:21;;;;;;;3.50;2.20;;;;;;;8.52;98.03;100650.14;106722;1303;22141;-56
2022/11/13 01:41:07;;;;;;;4.50;2.70;;;;;;;8.51;97.93;100644.63;106616;1296;137627;-56
2022/11/13 01:43:53;;;;;;;6.50;2.70;;;;;;;8.51;97.93;100642.63;106741;1304;22135;-56
2022/11/13 01:46:44;;;;;;;3.20;2.20;;;;;;;8.50;97.94;100634.15;106770;1303;23280;-56
2022/11/13 01:49:32;;;;;;;3.60;2.40;;;;;;;8.53;97.99;100634.21;106625;1303;22139;-56
2022/11/13 01:52:25;;;;;;;4.80;2.20;;;;;;;8.54;97.84;100632.24;106877;1303;22211;-56
2022/11/13 01:55:12;;;;;;;4.70;2.30;;;;;;;8.52;97.88;100632.37;106796;1302;22238;-56
2022/11/13 01:57:57;;;;;;;2.50;2.00;;;;;;;8.51;97.76;100633.06;106790;1294;22124;-56
2022/11/13 02:00:43;;;;;;;9.50;2.70;;;;;;;8.47;97.81;100627.17;106679;1303;137733;-56
2022/11/13 02:03:28;;;;;;;4.90;2.10;;;;;;;8.52;98.01;100633.13;106942;1303;22135;-56
2022/11/13 02:06:13;;;;;;;3.90;2.30;;;;;;;8.53;97.82;100628.28;104884;1292;138672;-55
2022/11/13 02:08:59;;;;;;;3.60;2.20;;;;;;;8.55;97.78;100628.41;102482;1286;22568;-55
2022/11/13 02:11:44;;;;;;;6.70;2.10;;;;;;;8.55;97.72;100627.69;102420;1288;137817;-55
2022/11/13 02:14:30;;;;;;;5.20;2.60;;;;;;;8.55;97.71;100628.39;102508;1295;22457;-55
2022/11/13 02:17:25;;;;;;;3.50;2.30;;;;;;;8.55;97.63;100627.82;102335;1285;138527;-56
2022/11/13 02:20:10;;;;;;;3.00;2.40;;;;;;;8.54;97.64;100625.77;102440;1288;25343;-55
2022/11/13 02:23:08;;;;;;;5.00;2.60;;;;;;;8.55;97.65;100629.53;102285;1310;138780;-55
2022/11/13 02:25:54;;;;;;;2.90;2.00;;;;;;;8.53;97.47;100629.23;102480;1301;25463;-55
2022/11/13 02:28:40;;;;;;;3.50;2.40;;;;;;;8.50;97.46;100627.11;102414;1285;24330;-56
2022/11/13 02:31:25;;;;;;;4.30;2.30;;;;;;;8.48;97.59;100632.80;102614;1292;22480;-55
2022/11/13 02:34:11;;;;;;;6.20;2.30;;;;;;;8.47;97.63;100633.09;102433;1302;25489;-55
2022/11/13 02:36:56;;;;;;;2.70;2.10;;;;;;;8.46;97.67;100632.09;102456;1294;139400;-55
2022/11/13 02:39:42;;;;;;;3.20;2.00;;;;;;;8.47;97.62;100629.83;102464;1292;26308;-56
2022/11/13 02:42:28;;;;;;;2.50;1.90;;;;;;;8.46;97.76;100631.92;102375;1310;138024;-55
2022/11/13 02:45:13;;;;;;;3.20;2.20;;;;;;;8.45;97.64;100635.23;102400;1286;24949;-55
2022/11/13 02:47:59;;;;;;;2.70;2.30;;;;;;;8.45;97.61;100630.92;102307;1286;137993;-56
2022/11/13 02:50:45;;;;;;;3.90;2.20;;;;;;;8.45;97.76;100629.27;106841;1284;22209;-57
2022/11/13 02:53:30;;;;;;;3.10;2.20;;;;;;;8.45;97.67;100635.10;106744;1303;139009;-57
2022/11/13 02:56:16;;;;;;;3.30;2.40;;;;;;;8.45;97.85;100635.36;106869;1300;23305;-57
2022/11/13 02:59:01;;;;;;;4.30;2.60;;;;;;;8.46;97.93;100640.12;106736;1276;137946;-57
2022/11/13 03:01:47;;;;;;;3.30;2.40;;;;;;;8.44;97.73;100641.38;106848;1303;22143;-57
2022/11/13 03:04:32;;;;;;;2.70;2.00;;;;;;;8.47;97.69;100646.30;106940;1300;22232;-56
2022/11/13 03:07:37;;;;;;;7.40;2.40;;;;;;;8.49;97.75;100645.83;106918;1302;22110;-56
2022/11/13 03:10:23;;;;;;;3.00;2.00;;;;;;;8.51;97.95;100648.54;106955;1294;22116;-57
2022/11/13 03:13:08;;;;;;;2.10;1.60;;;;;;;8.53;97.73;100651.35;106762;1293;139446;-57
2022/11/13 03:15:53;;;;;;;3.00;2.00;;;;;;;8.51;97.79;100655.22;106844;1299;22126;-56
2022/11/13 03:18:39;;;;;;;3.40;1.90;;;;;;;8.51;97.68;100651.70;106746;1303;139369;-57
2022/11/13 03:21:24;;;;;;;4.80;2.30;;;;;;;8.53;97.77;100649.19;106865;1300;22214;-56
2022/11/13 03:24:09;;;;;;;3.40;2.10;;;;;;;8.52;97.67;100643.66;106854;1299;138216;-57
2022/11/13 03:26:55;;;;;;;2.40;1.70;;;;;;;8.51;97.67;100645.35;106878;1299;22146;-56
2022/11/13 03:29:40;;;;;;;2.90;2.20;;;;;;;8.49;97.61;100641.73;106759;1297;138932;-56
2022/11/13 03:32:25;;;;;;;2.70;1.90;;;;;;;8.48;97.73;100640.20;106871;1301;22110;-56
2022/11/13 03:35:11;;;;;;;4.30;1.90;;;;;;;8.50;98.10;100643.70;106817;1303;138245;-57
2022/11/13 03:37:56;;;;;;;4.90;2.30;;;;;;;8.51;97.94;100647.52;102559;1285;26466;-56
2022/11/13 03:40:41;;;;;;;3.80;2.20;;;;;;;8.52;98.25;100648.35;102572;1286;22468;-56
2022/11/13 03:43:27;;;;;;;4.90;2.50;;;;;;;8.52;98.09;100646.89;102636;1287;22516;-56
2022/11/13 03:46:13;;;;;;;4.30;2.40;;;;;;;8.50;98.26;100645.91;102564;1307;22479;-55
2022/11/13 03:48:59;;;;;;;3.10;2.30;;;;;;;8.46;98.28;100650.48;102468;1286;138923;-55
2022/11/13 03:51:44;;;;;;;3.20;1.90;;;;;;;8.43;98.66;100649.40;102527;1305;23785;-55
2022/11/13 03:54:30;;;;;;;2.10;1.70;;;;;;;8.42;98.67;100653.70;102291;1291;139055;-55
2022/11/13 03:57:15;;;;;;;5.30;1.70;;;;;;;8.42;98.81;100657.97;102465;1292;22642;-56
2022/11/13 04:00:05;;;;;;;3.10;2.00;;;;;;;8.40;99.02;100654.38;102436;1286;138578;-55
2022/11/13 04:02:50;;;;;;;2.40;1.80;;;;;;;8.38;99.15;100654.09;102481;1291;25498;-56
2022/11/13 04:05:36;;;;;;;4.50;2.10;;;;;;;8.36;99.17;100660.39;102473;1284;138682;-54
2022/11/13 04:08:22;;;;;;;3.10;2.10;;;;;;;8.34;99.30;100656.98;102437;1300;26020;-55
2022/11/13 04:11:08;;;;;;;3.90;2.40;;;;;;;8.32;99.43;100662.03;102362;1302;140904;-55
2022/11/13 04:13:54;;;;;;;4.40;2.40;;;;;;;8.31;99.59;100660.35;102442;1286;22480;-55
2022/11/13 04:16:39;;;;;;;3.80;3.40;;;;;;;8.29;99.84;100660.33;102454;1291;23902;-55
2022/11/13 04:19:25;;;;;;;4.10;2.40;;;;;;;8.28;99.99;100660.55;102500;1307;22611;-55
2022/11/13 04:22:10;;;;;;;3.60;2.70;;;;;;;8.29;100.00;100656.32;102493;1291;22614;-54
2022/11/13 04:24:56;;;;;;;2.80;2.50;;;;;;;8.30;100.00;100652.95;102559;1292;138591;-54
2022/11/13 04:27:41;;;;;;;3.30;2.50;;;;;;;8.30;100.00;100651.48;102775;1305;24461;-54
2022/11/13 04:30:27;;;;;;;5.30;2.70;;;;;;;8.30;100.00;100653.48;102405;1292;22471;-55
2022/11/13 04:33:13;;;;;;;4.60;2.20;;;;;;;8.30;100.00;100657.08;106604;1285;138389;-56
2022/11/13 04:35:58;;;;;;;3.80;2.40;;;;;;;8.32;100.00;100657.39;105409;1308;24305;-55
2022/11/13 04:38:44;;;;;;;2.70;1.80;;;;;;;8.34;100.00;100659.27;102401;1286;138237;-55
2022/11/13 04:44:39;;;;;;;3.90;2.30;;;;;;;8.35;100.00;100662.52;102384;1296;138354;-55
2022/11/13 04:47:25;;;;;;;12.90;2.40;;;;;;;8.36;100.00;100662.02;102464;1287;25272;-55
2022/11/13 04:50:10;;;;;;;3.80;2.20;;;;;;;8.36;100.00;100661.68;102211;1312;138352;-55
2022/11/13 04:52:56;;;;;;;2.40;2.10;;;;;;;8.35;100.00;100666.70;102435;1299;22502;-55
2022/11/13 04:55:41;;;;;;;3.60;2.20;;;;;;;8.36;100.00;100665.73;102402;1309;138319;-54
2022/11/13 04:58:27;;;;;;;3.50;2.10;;;;;;;8.34;100.00;100664.49;102465;1299;25301;-55
2022/11/13 05:01:13;;;;;;;2.20;1.50;;;;;;;8.33;100.00;100672.47;102362;1292;138254;-55
2022/11/13 05:03:59;;;;;;;8.10;3.50;;;;;;;8.33;100.00;100675.19;102464;1298;25447;-55
2022/11/13 05:06:45;;;;;;;8.10;4.00;;;;;;;8.32;100.00;100682.13;102571;1314;23046;-55
2022/11/13 05:09:30;;;;;;;10.00;4.50;;;;;;;8.33;100.00;100681.75;106831;1301;22203;-56
2022/11/13 05:12:16;;;;;;;7.80;3.90;;;;;;;8.31;100.00;100688.83;106804;1301;22157;-56
2022/11/13 05:15:01;;;;;;;12.60;5.40;;;;;;;8.29;100.00;100688.70;106709;1285;138395;-56
2022/11/13 05:17:48;;;;;;;10.80;5.20;;;;;;;8.28;100.00;100684.52;106798;1298;22227;-56
2022/11/13 05:20:33;;;;;;;12.90;6.00;;;;;;;8.28;100.00;100688.49;106694;1303;139192;-56
2022/11/13 05:23:18;;;;;;;12.20;5.80;;;;;;;8.30;100.00;100692.63;106862;1306;22219;-56
2022/11/13 05:26:08;;;;;;;14.00;6.90;;;;;;;8.29;100.00;100694.09;106694;1303;138367;-56
2022/11/13 05:28:57;;;;;;;8.40;5.20;;;;;;;8.30;100.00;100689.11;106850;1293;22108;-57
2022/11/13 05:31:43;;;;;;;9.90;5.00;;;;;;;8.31;100.00;100692.39;106784;1303;139522;-56
2022/11/13 05:34:28;;;;;;;14.40;7.20;;;;;;;8.32;100.00;100692.48;106816;1303;22230;-56
2022/11/13 05:37:14;;;;;;;11.30;6.50;;;;;;;8.32;100.00;100688.22;106740;1303;138542;-56
2022/11/13 05:39:59;;;;;;;6.40;3.20;;;;;;;8.31;100.00;100690.25;106791;1303;22193;-56
2022/11/13 05:42:44;;;;;;;7.30;4.10;;;;;;;8.30;100.00;100692.59;106810;1296;22230;-56
2022/11/13 05:45:29;;;;;;;9.60;4.40;;;;;;;8.30;100.00;100694.42;106841;1306;22186;-56
2022/11/13 05:48:15;;;;;;;7.60;4.40;;;;;;;8.27;100.00;100687.33;106877;1303;22189;-55
2022/11/13 05:51:14;;;;;;;3.20;2.00;;;;;;;8.31;100.00;100696.26;106677;1303;138156;-56
2022/11/13 05:53:59;;;;;;;4.40;2.50;;;;;;;8.29;100.00;100698.64;106808;1293;22112;-56
2022/11/13 05:56:45;;;;;;;1.50;1.00;;;;;;;8.28;100.00;100700.86;106704;1303;139719;-56
2022/11/13 05:59:30;;;;;;;4.80;3.10;;;;;;;8.27;100.00;100700.77;106815;1290;22164;-55
2022/11/13 06:02:15;;;;;;;4.10;2.50;;;;;;;8.27;100.00;100711.46;106725;1295;138241;-56
2022/11/13 06:05:01;;;;;;;3.00;2.20;;;;;;;8.27;100.00;100707.88;106780;1303;22922;-56
2022/11/13 06:07:48;;;;;;;2.90;1.30;;;;;;;8.24;100.00;100700.82;106768;1303;138156;-56
2022/11/13 06:10:33;;;;;;;2.60;1.50;;;;;;;8.29;100.00;100706.33;106825;1302;22131;-56
2022/11/13 06:13:19;;;;;;;2.00;1.70;;;;;;;8.30;100.00;100711.25;106758;1303;138905;-56
2022/11/13 06:16:07;;;;;;;3.70;1.70;;;;;;;8.31;100.00;100711.97;106799;1303;23004;-56
2022/11/13 06:18:56;;;;;;;;;;;;;;;8.32;100.00;100710.40;106863;1303;22363;-56
2022/11/13 06:21:42;;;;;;;5.20;2.20;;;;;;;8.34;100.00;100713.08;106908;1303;22226;-56
2022/11/13 06:24:27;;;;;;;3.00;2.20;;;;;;;8.35;100.00;100716.71;106812;1295;22104;-56
2022/11/13 06:27:12;;;;;;;2.40;1.80;;;;;;;8.33;100.00;100718.30;106790;1303;138034;-56
2022/11/13 06:29:58;;;;;;;1.30;1.20;;;;;;;8.30;100.00;100721.08;106872;1303;22962;-56
2022/11/13 06:32:43;;;;;;;1.60;1.50;;;;;;;8.30;100.00;100719.15;106701;1303;138679;-56
2022/11/13 06:35:29;;;;;;;25.00;17.10;;;;;;;8.32;100.00;100720.77;106805;1302;22182;-57
2022/11/13 06:38:14;;;;;;;3.10;2.30;;;;;;;8.34;100.00;100716.30;106787;1303;139306;-57
2022/11/13 06:41:00;;;;;;;3.50;2.40;;;;;;;8.36;100.00;100714.91;106905;1303;23253;-57
2022/11/13 06:43:46;;;;;;;3.50;2.20;;;;;;;8.37;100.00;100719.66;106774;1295;138311;-57
2022/11/13 06:46:31;;;;;;;6.90;1.90;;;;;;;8.38;100.00;100718.44;106803;1279;22125;-57
2022/11/13 06:49:16;;;;;;;1.50;1.10;;;;;;;8.37;100.00;100717.05;106739;1285;138250;-57
2022/11/13 06:52:02;;;;;;;2.10;1.30;;;;;;;8.40;100.00;100717.38;106829;1303;23337;-57
2022/11/13 06:54:47;;;;;;;3.60;1.90;;;;;;;8.42;100.00;100716.64;106822;1300;22953;-57
2022/11/13 06:57:33;;;;;;;5.30;2.50;;;;;;;8.45;100.00;100712.41;106683;1302;137889;-57
2022/11/13 07:00:18;;;;;;;3.10;2.30;;;;;;;8.48;100.00;100709.89;106914;1303;22125;-57
2022/11/13 07:03:03;;;;;;;3.70;3.00;;;;;;;8.53;100.00;100703.89;106737;1297;138996;-57
2022/11/13 07:05:49;;;;;;;4.40;2.80;;;;;;;8.57;100.00;100707.64;105638;1303;22520;-55
2022/11/13 07:08:34;;;;;;;3.40;2.80;;;;;;;8.61;100.00;100710.08;102474;1295;138104;-56
2022/11/13 07:11:21;;;;;;;4.30;3.80;;;;;;;8.64;99.99;100707.95;102512;1310;25276;-56
2022/11/13 07:14:09;;;;;;;4.10;3.70;;;;;;;8.65;99.96;100705.34;102399;1287;137917;-56
2022/11/13 07:16:55;;;;;;;13.80;10.10;;;;;;;8.68;99.95;100711.33;106831;1303;22136;-57
2022/11/13 07:19:53;;;;;;;5.40;4.40;;;;;;;8.70;99.88;100712.23;106718;1303;138867;-57
2022/11/13 07:22:38;;;;;;;3.50;2.10;;;;;;;8.72;99.81;100712.06;106826;1302;22159;-57
2022/11/13 07:25:24;;;;;;;1.80;1.50;;;;;;;8.72;99.60;100710.98;106714;1303;138254;-57
2022/11/13 07:28:09;;;;;;;1.90;1.60;;;;;;;8.73;99.33;100708.39;106811;1303;22126;-57
2022/11/13 07:30:58;;;;;;;2.90;1.80;;;;;;;8.74;99.14;100708.71;106889;1303;22210;-57
2022/11/13 07:33:44;;;;;;;3.00;2.20;;;;;;;8.77;99.15;100705.03;106905;1285;22994;-57
2022/11/13 07:36:29;;;;;;;2.00;1.60;;;;;;;8.78;98.86;100693.36;104410;1302;22501;-57
2022/11/13 07:39:14;;;;;;;3.40;2.60;;;;;;;8.80;98.83;100692.55;102447;1286;138108;-56
2022/11/13 07:42:00;;;;;;;8.10;2.10;;;;;;;8.81;98.59;100695.91;102391;1292;22529;-56
2022/11/13 07:44:46;;;;;;;1.80;1.60;;;;;;;8.81;98.19;100696.92;102366;1310;138602;-56
2022/11/13 07:47:39;;;;;;;3.50;2.30;;;;;;;8.78;98.04;100696.37;102465;1310;25052;-55
2022/11/13 07:50:26;;;;;;;2.50;1.80;;;;;;;8.80;98.04;100693.21;102367;1286;139251;-58
2022/11/13 07:53:12;;;;;;;2.40;2.00;;;;;;;8.82;98.09;100696.75;106790;1302;22174;-57
2022/11/13 07:56:01;;;;;;;3.20;2.40;;;;;;;8.82;98.09;100700.13;106697;1301;138266;-57
2022/11/13 07:58:47;;;;;;;3.30;2.80;;;;;;;8.85;98.05;100700.70;106844;1303;22231;-57
2022/11/13 08:01:32;;;;;;;5.30;3.60;;;;;;;8.85;97.79;100695.19;106763;1302;138478;-57
2022/11/13 08:04:17;;;;;;;5.00;3.30;;;;;;;8.86;97.65;100702.88;106882;1302;22226;-56
2022/11/13 08:07:03;;;;;;;4.60;2.70;;;;;;;8.89;97.35;100708.97;106807;1303;22207;-57
2022/11/13 08:09:48;;;;;;;3.00;2.60;;;;;;;8.91;97.31;100710.39;106931;1303;22112;-57
2022/11/13 08:12:33;;;;;;;6.20;3.50;;;;;;;8.91;96.94;100709.68;106784;1302;22147;-57
2022/11/13 08:15:19;;;;;;;3.90;2.90;;;;;;;8.92;97.02;100717.33;106776;1295;140303;-57
2022/11/13 08:18:04;;;;;;;4.80;3.30;;;;;;;8.91;97.02;100716.66;106836;1303;22207;-57
2022/11/13 08:20:49;;;;;;;3.40;2.70;;;;;;;8.94;97.09;100721.02;106724;1303;138389;-57
2022/11/13 08:23:35;;;;;;;6.20;4.10;;;;;;;8.97;97.25;100716.94;106915;1295;22126;-57
2022/11/13 08:26:20;;;;;;;3.50;2.60;;;;;;;9.02;96.98;100717.67;106705;1303;138190;-57
2022/11/13 08:29:06;;;;;;;3.90;2.90;;;;;;;9.03;96.51;100718.55;106781;1302;22178;-56
2022/11/13 08:31:51;;;;;;;3.80;3.20;;;;;;;9.01;96.51;100712.80;106701;1302;139825;-57
2022/11/13 08:34:36;;;;;;;6.20;2.60;;;;;;;9.03;96.39;100719.92;106903;1298;22154;-57
2022/11/13 08:37:22;;;;;;;3.00;2.40;;;;;;;9.02;95.97;100714.91;106725;1302;138064;-60
2022/11/13 08:40:08;;;;;;;75.10;44.90;;;;;;;9.02;95.72;100709.27;106898;1295;22261;-61
2022/11/13 08:43:00;;;;;;;17.50;9.50;;;;;;;9.05;95.95;100708.71;106919;1303;23121;-61
2022/11/13 08:45:46;;;;;;;8.20;4.60;;;;;;;9.09;96.19;100706.99;106824;1302;22131;-61
2022/11/13 08:48:31;;;;;;;4.70;3.90;;;;;;;9.13;95.74;100706.09;106846;1302;22326;-60
2022/11/13 08:51:17;;;;;;;6.00;2.90;;;;;;;9.16;95.47;100702.02;106712;1303;137916;-61
2022/11/13 08:54:02;;;;;;;17.10;10.70;;;;;;;9.19;95.23;100697.99;106816;1303;22137;-61
2022/11/13 08:56:48;;;;;;;19.70;10.10;;;;;;;9.22;95.26;100697.13;106785;1295;138324;-61
2022/11/13 08:59:40;;;;;;;27.70;14.50;;;;;;;9.25;95.06;100689.70;106843;1294;22197;-61
2022/11/13 09:02:25;;;;;;;13.50;7.80;;;;;;;9.31;94.85;100687.30;106781;1302;139180;-61
2022/11/13 09:05:11;;;;;;;15.40;9.50;;;;;;;9.35;94.74;100684.07;106863;1299;23488;-60
2022/11/13 09:07:57;;;;;;;26.10;11.50;;;;;;;9.40;94.57;100677.10;106649;1303;138327;-60
2022/11/13 09:10:43;;;;;;;31.20;12.80;;;;;;;9.47;94.33;100680.65;106807;1302;22189;-60
2022/11/13 09:13:29;;;;;;;8.00;4.10;;;;;;;9.52;93.76;100676.80;106816;1301;139417;-61
2022/11/13 09:16:14;;;;;;;5.30;2.70;;;;;;;9.57;93.40;100676.95;106795;1285;22952;-61
2022/11/13 09:18:59;;;;;;;12.00;3.90;;;;;;;9.62;92.81;100678.13;106922;1302;22131;-61
2022/11/13 09:21:45;;;;;;;13.50;9.20;;;;;;;9.64;92.61;100674.70;106688;1302;139689;-61
2022/11/13 09:24:31;;;;;;;118.00;66.20;;;;;;;9.71;91.93;100677.48;106922;1297;22128;-61
2022/11/13 09:27:17;;;;;;;67.40;35.00;;;;;;;9.75;91.99;100675.23;106718;1303;138475;-61
2022/11/13 09:30:02;;;;;;;273.10;166.10;;;;;;;9.79;91.46;100670.02;106916;1303;22206;-61
2022/11/13 09:32:47;;;;;;;44.10;25.10;;;;;;;9.82;90.99;100670.55;106736;1295;139825;-61
2022/11/13 09:35:33;;;;;;;113.80;68.40;;;;;;;9.85;90.95;100667.10;106205;1303;22474;-60
2022/11/13 09:38:19;;;;;;;101.60;61.00;;;;;;;9.88;90.97;100665.18;102432;1294;138538;-59
2022/11/13 09:41:08;;;;;;;21.90;15.80;;;;;;;9.93;91.13;100662.84;102452;1284;25054;-57
2022/11/13 09:43:55;;;;;;;10.10;6.10;;;;;;;9.98;90.79;100663.61;106681;1279;139472;-58
2022/11/13 09:46:57;;;;;;;4.50;4.10;;;;;;;10.01;90.89;100660.56;106793;1286;22228;-59
2022/11/13 09:49:44;;;;;;;4.30;3.40;;;;;;;10.05;90.69;100652.86;106660;1303;139130;-58
2022/11/13 09:52:32;;;;;;;8.20;4.10;;;;;;;10.09;90.14;100648.52;106742;1303;22981;-58
2022/11/13 09:55:19;;;;;;;13.90;12.30;;;;;;;10.11;90.10;100652.65;106764;1279;22157;-58
2022/11/13 09:58:33;;;;;;;4.60;3.70;;;;;;;10.15;89.94;100654.07;106778;1285;22140;-57
2022/11/13 10:01:53;;;;;;;23.40;14.70;;;;;;;10.18;89.35;100645.85;106819;1287;22138;-58
2022/11/13 10:05:03;;;;;;;2.60;2.30;;;;;;;10.19;89.29;100642.05;106413;1292;22155;-58
2022/11/13 10:07:51;;;;;;;4.20;2.50;;;;;;;10.22;88.29;100651.56;106284;1308;138397;-59
2022/11/13 10:10:42;;;;;;;;;;;;;;;10.23;88.57;100654.24;106392;1309;23105;-59
2022/11/13 10:13:29;;;;;;;292.80;141.70;;;;;;;10.24;88.65;100656.02;106216;1308;124982;-58
2022/11/13 10:16:28;;;;;;;252.20;112.90;;;;;;;10.27;88.06;100653.79;106297;1309;22310;-58
2022/11/13 10:19:25;;;;;;;113.20;54.10;;;;;;;10.30;88.33;100653.05;106326;1309;22213;-58
2022/11/13 10:22:18;;;;;;;87.10;52.60;;;;;;;10.35;87.97;100647.96;106317;1308;22261;-60
2022/11/13 10:25:22;;;;;;;80.90;44.20;;;;;;;10.40;87.65;100648.81;106245;1309;22295;-59
2022/11/13 10:28:15;;;;;;;72.30;41.60;;;;;;;10.43;87.46;100645.00;106342;1309;22157;-59
2022/11/13 10:31:20;;;;;;;54.50;29.50;;;;;;;10.49;87.44;100643.42;106376;1309;22174;-59
2022/11/13 10:34:05;;;;;;;36.50;22.10;;;;;;;10.55;87.11;100644.62;106368;1305;23106;-59
2022/11/13 10:37:18;;;;;;;38.00;22.40;;;;;;;10.60;86.56;100644.77;106389;1294;22204;-59
2022/11/13 10:40:04;;;;;;;56.80;36.90;;;;;;;10.66;86.26;100638.33;104412;1301;141415;-58
2022/11/13 10:42:49;;;;;;;15.50;8.60;;;;;;;10.71;86.12;100637.53;102372;1294;24440;-58
2022/11/13 10:45:35;;;;;;;16.80;9.20;;;;;;;10.77;85.81;100635.57;102259;1286;139054;-58
2022/11/13 10:48:23;;;;;;;5.20;4.00;;;;;;;10.82;85.49;100640.89;102407;1295;22547;-59
2022/11/13 10:51:21;;;;;;;6.00;3.00;;;;;;;10.86;85.02;100639.40;106691;1279;138832;-59
2022/11/13 10:54:39;;;;;;;99.80;49.70;;;;;;;10.87;84.20;100637.84;106632;1302;22237;-58
2022/11/13 10:57:33;;;;;;;119.00;67.90;;;;;;;10.85;84.37;100640.64;106289;1306;138485;-58
2022/11/13 11:00:37;;;;;;;141.50;80.50;;;;;;;10.88;84.34;100641.98;106415;1306;22221;-59
2022/11/13 11:03:23;;;;;;;43.10;22.50;;;;;;;10.89;84.23;100633.70;106315;1308;139305;-59
2022/11/13 11:06:08;;;;;;;26.90;18.30;;;;;;;10.90;84.44;100631.30;106419;1306;22246;-59
2022/11/13 11:09:04;;;;;;;23.80;18.90;;;;;;;10.93;84.40;100634.44;106420;1306;140355;-60
2022/11/13 11:12:14;;;;;;;17.90;12.10;;;;;;;10.96;84.27;100622.39;106445;1306;22291;-58
2022/11/13 11:15:09;;;;;;;6.30;5.60;;;;;;;11.03;83.93;100627.23;106371;1297;138891;-59
2022/11/13 11:18:00;;;;;;;4.60;3.40;;;;;;;11.04;83.38;100618.78;102069;1299;24228;-58
2022/11/13 11:23:21;;;;;;;38.30;21.80;;;;;;;11.08;83.20;100606.64;99783;1340;545144;-56
2022/11/13 11:26:11;;;;;;;11.40;6.90;;;;;;;11.09;82.92;100609.63;106023;1312;138480;-58
2022/11/13 11:29:11;;;;;;;64.00;36.60;;;;;;;11.11;82.54;100607.00;105765;1315;23285;-58
2022/11/13 11:32:16;;;;;;;38.30;21.30;;;;;;;11.07;82.49;100607.13;105450;1316;139406;-60
2022/11/13 11:35:16;;;;;;;24.40;13.70;;;;;;;11.11;82.25;100610.11;105549;1291;22226;-61
2022/11/13 11:38:23;;;;;;;42.00;22.10;;;;;;;11.11;82.32;100610.34;105814;1289;138015;-60
2022/11/13 11:41:13;;;;;;;29.50;16.70;;;;;;;11.10;81.96;100604.98;106102;1312;23223;-60
2022/11/13 11:44:12;;;;;;;48.60;27.70;;;;;;;11.11;81.86;100595.81;105792;1313;138559;-60
2022/11/13 11:46:58;;;;;;;18.00;11.00;;;;;;;11.12;81.65;100593.50;106087;1312;22161;-61
2022/11/13 11:49:43;;;;;;;10.10;6.90;;;;;;;11.14;81.41;100592.27;106015;1312;138350;-60
2022/11/13 11:52:35;;;;;;;6.20;4.30;;;;;;;11.14;81.69;100594.19;106134;1312;22251;-61
2022/11/13 11:55:20;;;;;;;5.70;4.40;;;;;;;11.16;81.60;100589.63;106113;1312;22216;-61
2022/11/13 11:58:27;;;;;;;353.90;163.90;;;;;;;11.18;81.66;100586.23;106011;1312;22161;-61
2022/11/13 12:01:51;;;;;;;186.30;79.90;;;;;;;11.21;80.92;100596.02;106077;1312;22133;-61
2022/11/13 12:05:35;;;;;;;39.00;18.90;;;;;;;11.17;80.40;100594.15;106105;1312;22243;-60
2022/11/13 12:08:31;;;;;;;43.40;22.80;;;;;;;11.08;80.38;100588.73;105114;1321;139146;-60
2022/11/13 12:11:23;;;;;;;42.30;21.30;;;;;;;11.04;80.41;100589.04;105035;1321;22170;-61
2022/11/13 12:14:32;;;;;;;34.50;20.80;;;;;;;11.02;80.63;100590.58;104945;1321;139618;-61
2022/11/13 12:17:26;;;;;;;314.80;179.70;;;;;;;11.00;80.26;100584.52;101232;1313;24432;-59
2022/11/13 12:20:18;;;;;;;31.80;17.10;;;;;;;10.99;80.52;100588.36;100703;1304;139541;-60
2022/11/13 12:23:22;;;;;;;99.30;50.40;;;;;;;10.95;80.54;100594.93;100889;1320;22496;-60
2022/11/13 12:26:14;;;;;;;33.40;19.80;;;;;;;10.93;80.84;100597.19;100749;1314;138527;-59
2022/11/13 12:29:05;;;;;;;14.20;12.00;;;;;;;10.94;80.87;100600.70;100832;1321;22511;-60
2022/11/13 12:31:58;;;;;;;24.80;16.10;;;;;;;10.94;80.70;100594.86;105251;1318;139597;-59
2022/11/13 12:34:54;;;;;;;23.20;12.70;;;;;;;10.96;80.65;100593.85;105199;1306;23378;-60
2022/11/13 12:37:54;;;;;;;6.80;3.90;;;;;;;10.96;80.54;100591.63;105025;1319;22275;-60
2022/11/13 12:41:01;;;;;;;5.50;3.50;;;;;;;10.96;80.53;100583.67;106022;1312;22158;-61
2022/11/13 12:44:04;;;;;;;50.70;25.40;;;;;;;10.96;80.59;100580.89;105872;1313;137772;-59
2022/11/13 12:46:50;;;;;;;18.00;10.40;;;;;;;10.99;80.57;100586.63;106107;1312;22965;-61
2022/11/13 12:49:35;;;;;;;25.20;14.20;;;;;;;11.02;80.26;100590.55;106123;1313;22151;-61
2022/11/13 12:52:23;;;;;;;6.40;4.10;;;;;;;11.04;80.35;100591.85;106393;1302;22133;-59
2022/11/13 12:55:33;;;;;;;17.60;15.70;;;;;;;11.05;80.29;100593.93;106403;1308;22310;-59
2022/11/13 12:58:20;;;;;;;118.60;53.70;;;;;;;11.08;80.17;100588.95;106393;1309;22158;-61